Time;durP1;ratioP1;P1;durP2;ratioP2;P2;SDS_P1;SDS_P2;PMS_P1;PMS_P2;Temp;Humidity;BMP_temperature;BMP_pressure;BME280_temperature;BME280_humidity;BME280_pressure;Samples;Min_cycle;Max_cycle;Signal;HPM_P1;HPM_P2
2021/11/29 00:00:07;;;;;;;20.17;10.10;;;;;;;4.55;61.65;99183.59;4929854;29;20044;-80
2021/11/29 00:02:40;;;;;;;20.10;10.90;;;;;;;4.63;62.84;99197.38;4931836;29;20268;-78
2021/11/29 00:05:06;;;;;;;19.58;10.57;;;;;;;4.80;63.29;99200.91;4938697;29;20185;-79
2021/11/29 00:07:32;;;;;;;21.70;10.20;;;;;;;4.86;62.67;99194.06;4937648;29;20051;-81
2021/11/29 00:09:58;;;;;;;21.73;10.63;;;;;;;4.94;63.49;99184.66;4932796;29;20047;-81
2021/11/29 00:12:24;;;;;;;17.67;10.55;;;;;;;4.91;62.90;99185.47;4915523;29;20109;-82
2021/11/29 00:14:50;;;;;;;19.90;9.40;;;;;;;4.77;62.18;99164.78;4930073;29;21506;-79
2021/11/29 00:17:17;;;;;;;18.92;10.00;;;;;;;4.83;63.16;99177.72;4926026;29;20062;-83
2021/11/29 00:19:42;;;;;;;26.15;10.50;;;;;;;4.60;62.92;99140.66;4926278;29;20581;-82
2021/11/29 00:22:08;;;;;;;16.02;9.40;;;;;;;4.80;62.67;99163.97;4928484;29;20106;-84
2021/11/29 00:24:34;;;;;;;20.75;9.93;;;;;;;4.61;62.08;99126.94;4915253;29;20052;-81
2021/11/29 00:27:00;;;;;;;17.23;9.48;;;;;;;4.66;61.60;99161.31;4936302;29;20040;-80
2021/11/29 00:29:26;;;;;;;17.17;9.00;;;;;;;4.27;62.24;99117.31;4916586;29;20054;-81
2021/11/29 00:31:52;;;;;;;19.52;9.38;;;;;;;4.31;63.09;99137.09;4924493;29;20055;-82
2021/11/29 00:34:19;;;;;;;15.20;8.93;;;;;;;4.55;63.09;99150.09;4914013;29;20060;-80
2021/11/29 00:36:45;;;;;;;14.82;9.38;;;;;;;4.29;62.85;99089.00;4927265;29;20036;-81
2021/11/29 00:39:11;;;;;;;17.05;9.73;;;;;;;4.64;63.05;99152.72;4929279;29;20601;-82
2021/11/29 00:41:37;;;;;;;14.48;9.02;;;;;;;4.11;62.88;99094.91;4927389;29;20122;-80
2021/11/29 00:44:03;;;;;;;14.93;8.88;;;;;;;4.30;63.00;99121.63;4923858;29;20069;-83
2021/11/29 00:46:29;;;;;;;13.63;8.88;;;;;;;4.40;63.09;99149.16;4926302;29;20039;-82
2021/11/29 00:48:55;;;;;;;16.60;8.98;;;;;;;4.34;62.17;99143.97;4928742;29;20527;-82
2021/11/29 00:51:21;;;;;;;16.08;8.95;;;;;;;4.19;62.76;99137.03;4927106;29;20044;-82
2021/11/29 00:53:47;;;;;;;16.17;9.27;;;;;;;4.30;63.62;99137.09;4925713;29;20452;-81
2021/11/29 00:56:15;;;;;;;15.70;9.45;;;;;;;4.22;62.78;99130.16;4925999;29;20071;-80
2021/11/29 00:58:40;;;;;;;21.50;9.70;;;;;;;4.21;63.23;99143.91;4926576;29;20507;-82
2021/11/29 01:01:06;;;;;;;19.58;10.65;;;;;;;4.12;64.12;99112.06;4927343;29;20043;-81
2021/11/29 01:03:32;;;;;;;16.67;10.35;;;;;;;4.25;63.71;99136.19;4926687;29;20068;-80
2021/11/29 01:05:59;;;;;;;19.08;10.18;;;;;;;4.07;64.20;99097.44;4924673;29;20046;-81
2021/11/29 01:08:25;;;;;;;16.98;9.93;;;;;;;4.23;64.02;99120.72;4921453;29;20043;-82
2021/11/29 01:10:51;;;;;;;18.23;10.50;;;;;;;4.16;64.37;99098.38;4929106;29;20047;-79
2021/11/29 01:13:16;;;;;;;16.88;9.65;;;;;;;4.34;63.78;99102.75;4925021;29;20043;-82
2021/11/29 01:15:43;;;;;;;20.17;11.50;;;;;;;4.26;63.82;99088.97;4913371;29;20163;-81
2021/11/29 01:18:11;;;;;;;20.17;11.10;;;;;;;4.37;64.47;99106.22;4925978;29;20049;-78
2021/11/29 01:20:40;;;;;;;25.75;12.85;;;;;;;4.35;63.93;99087.31;4912827;29;20066;-81
2021/11/29 01:23:06;;;;;;;23.40;12.07;;;;;;;4.07;63.41;99058.81;4926016;29;20465;-79
2021/11/29 01:25:32;;;;;;;23.98;12.43;;;;;;;4.22;63.89;99085.50;4928027;29;20158;-81
2021/11/29 01:27:59;;;;;;;27.42;13.38;;;;;;;4.27;64.25;99101.84;4939853;28;20042;-82
2021/11/29 01:30:24;;;;;;;22.92;12.07;;;;;;;4.39;65.20;99088.19;4923495;29;20058;-78
2021/11/29 01:32:50;;;;;;;17.88;10.70;;;;;;;4.17;64.21;99062.31;4928359;29;20047;-79
2021/11/29 01:35:16;;;;;;;23.65;10.75;;;;;;;4.17;64.00;99074.34;4925821;29;20146;-78
2021/11/29 01:37:42;;;;;;;23.00;12.07;;;;;;;4.20;64.58;99069.19;4926094;29;20529;-80
2021/11/29 01:40:09;;;;;;;25.05;11.35;;;;;;;4.18;63.61;99071.75;4911208;29;20490;-81
2021/11/29 01:42:35;;;;;;;23.10;12.27;;;;;;;4.25;65.08;99080.38;4924662;29;20056;-81
2021/11/29 01:45:02;;;;;;;24.08;12.00;;;;;;;4.50;65.34;99095.97;4920760;29;20560;-83
2021/11/29 01:47:28;;;;;;;22.60;12.75;;;;;;;4.53;65.15;99086.50;4928775;29;20122;-82
2021/11/29 01:49:54;;;;;;;24.58;12.75;;;;;;;4.42;64.77;99054.72;4936337;29;20091;-78
2021/11/29 01:52:20;;;;;;;20.67;12.05;;;;;;;4.55;64.52;99080.50;4925420;29;20046;-79
2021/11/29 01:54:46;;;;;;;21.23;11.93;;;;;;;4.27;65.17;99064.94;4933752;29;20062;-81
2021/11/29 01:57:13;;;;;;;22.50;12.15;;;;;;;4.31;64.49;99057.22;4931445;29;20047;-81
2021/11/29 01:59:39;;;;;;;21.10;10.82;;;;;;;4.41;65.82;99068.44;4925859;29;20091;-79
2021/11/29 02:02:05;;;;;;;18.75;12.02;;;;;;;4.55;65.42;99083.97;4926387;29;20044;-81
2021/11/29 02:04:31;;;;;;;23.23;11.70;;;;;;;4.61;65.27;99075.38;4926481;29;20165;-80
2021/11/29 02:06:57;;;;;;;20.33;11.40;;;;;;;4.49;64.97;99058.16;4911189;29;20040;-79
2021/11/29 02:09:23;;;;;;;22.58;11.80;;;;;;;4.63;65.70;99058.22;4912332;29;20181;-81
2021/11/29 02:11:48;;;;;;;25.88;13.00;;;;;;;4.51;64.30;99070.22;4925232;29;20074;-83
2021/11/29 02:14:14;;;;;;;23.23;11.52;;;;;;;4.58;65.79;99071.09;4925708;29;20054;-81
2021/11/29 02:16:40;;;;;;;23.13;11.57;;;;;;;4.51;65.20;99039.28;4924048;29;20052;-83
2021/11/29 02:19:07;;;;;;;26.02;11.93;;;;;;;4.45;64.32;99052.16;4926277;29;20040;-78
2021/11/29 02:21:33;;;;;;;21.05;11.63;;;;;;;4.44;65.17;99037.53;4925747;29;20127;-84
2021/11/29 02:24:07;;;;;;;22.50;11.65;;;;;;;4.45;64.71;99065.03;4926934;29;20127;-83
2021/11/29 02:26:36;;;;;;;23.73;11.32;;;;;;;4.36;65.45;99052.09;4922536;29;20555;-82
2021/11/29 02:29:09;;;;;;;27.20;12.95;;;;;;;4.13;64.93;99021.94;4925298;29;20051;-81
2021/11/29 02:31:38;;;;;;;26.48;12.85;;;;;;;4.28;65.42;99036.59;4924843;29;20130;-82
2021/11/29 02:34:08;;;;;;;24.60;13.32;;;;;;;4.17;65.67;99017.69;4924712;29;20043;-80
2021/11/29 02:36:34;;;;;;;26.85;12.95;;;;;;;4.09;65.03;99004.75;4912802;29;20048;-81
2021/11/29 02:39:00;;;;;;;27.80;13.40;;;;;;;4.21;66.21;99020.28;4927309;29;20044;-82
2021/11/29 02:41:26;;;;;;;26.77;13.32;;;;;;;4.15;65.96;99022.81;4913648;29;20051;-80
2021/11/29 02:43:51;;;;;;;24.42;13.52;;;;;;;4.30;67.34;99016.03;4924947;29;20076;-82
2021/11/29 02:46:18;;;;;;;29.63;14.10;;;;;;;4.45;65.23;99056.41;4925013;29;20403;-83
2021/11/29 02:48:49;;;;;;;24.80;12.68;;;;;;;4.22;65.93;99022.00;4912898;29;20044;-80
2021/11/29 02:51:26;;;;;;;26.98;13.35;;;;;;;4.13;67.14;99018.53;4923414;29;20099;-81
2021/11/29 02:53:57;;;;;;;28.70;13.65;;;;;;;4.06;67.13;99012.50;4914297;29;20048;-83
2021/11/29 02:56:24;;;;;;;27.08;13.45;;;;;;;4.19;68.11;98997.97;4919524;29;20048;-80
2021/11/29 02:58:50;;;;;;;29.58;13.70;;;;;;;4.48;67.07;99030.66;4930239;29;20092;-83
2021/11/29 03:01:28;;;;;;;27.63;13.75;;;;;;;4.40;66.81;99033.22;4917540;29;20043;-83
2021/11/29 03:03:54;;;;;;;27.83;13.65;;;;;;;4.18;67.05;98999.66;4930011;29;20504;-79
2021/11/29 03:06:20;;;;;;;26.65;13.27;;;;;;;4.10;66.84;99021.06;4917354;29;20040;-81
2021/11/29 03:08:47;;;;;;;33.58;13.70;;;;;;;3.60;67.26;98953.88;4930286;29;20071;-79
2021/11/29 03:11:14;;;;;;;33.33;15.13;;;;;;;3.95;68.17;98999.56;4932473;29;20051;-80
2021/11/29 03:13:40;;;;;;;26.00;13.80;;;;;;;4.11;67.36;99013.34;4933455;29;20048;-78
2021/11/29 03:16:06;;;;;;;33.75;13.73;;;;;;;4.28;68.67;99015.16;4931729;29;20058;-82
2021/11/29 03:18:35;;;;;;;27.38;12.90;;;;;;;4.35;68.22;99009.16;4901728;29;20525;-80
2021/11/29 03:21:02;;;;;;;31.98;14.57;;;;;;;4.40;68.21;99022.91;4933349;29;20085;-78
2021/11/29 03:23:28;;;;;;;34.85;15.70;;;;;;;4.22;68.96;98998.81;4919425;29;20050;-80
2021/11/29 03:25:54;;;;;;;31.33;14.93;;;;;;;4.45;67.71;99022.94;4920904;29;20047;-77
2021/11/29 03:28:19;;;;;;;30.30;14.02;;;;;;;3.95;67.60;98962.63;4928897;29;20070;-78
2021/11/29 03:30:45;;;;;;;27.15;14.27;;;;;;;4.21;68.98;99002.25;4913183;29;20043;-80
2021/11/29 03:33:11;;;;;;;28.45;14.13;;;;;;;3.86;68.52;98966.88;4928231;29;20043;-79
2021/11/29 03:35:37;;;;;;;28.98;15.23;;;;;;;4.00;69.10;99007.28;4928583;29;20051;-81
2021/11/29 03:38:03;;;;;;;30.65;14.93;;;;;;;3.99;69.00;99014.16;4927747;29;20474;-81
2021/11/29 03:40:33;;;;;;;28.23;13.80;;;;;;;3.96;70.35;99018.44;4926350;29;20045;-79
2021/11/29 03:42:59;;;;;;;30.83;14.63;;;;;;;4.13;69.81;99001.34;4928279;29;20095;-82
2021/11/29 03:45:25;;;;;;;28.20;14.40;;;;;;;4.19;70.37;98977.34;4914940;29;20191;-80
2021/11/29 03:47:50;;;;;;;35.25;15.63;;;;;;;4.19;69.58;98982.50;4915306;29;20043;-79
2021/11/29 03:50:16;;;;;;;32.88;16.10;;;;;;;3.97;69.82;98948.06;4914320;29;20569;-79
2021/11/29 03:53:25;;;;;;;32.15;15.57;;;;;;;4.25;69.97;98994.53;4930255;29;20513;-80
2021/11/29 03:55:51;;;;;;;33.08;16.17;;;;;;;4.15;70.46;98966.16;4930341;29;20631;-79
2021/11/29 03:58:17;;;;;;;34.03;16.30;;;;;;;4.39;70.61;98992.84;4915917;29;20043;-82
2021/11/29 04:00:44;;;;;;;33.33;15.52;;;;;;;4.31;70.29;98963.63;4925443;29;20044;-80
2021/11/29 04:03:10;;;;;;;33.28;15.43;;;;;;;4.28;70.47;98948.19;4931879;29;20501;-78
2021/11/29 04:05:35;;;;;;;34.33;15.90;;;;;;;4.37;70.72;98945.63;4930268;29;20054;-79
2021/11/29 04:08:01;;;;;;;37.05;16.35;;;;;;;4.45;69.24;98974.84;4926388;29;20060;-79
2021/11/29 04:10:27;;;;;;;42.28;17.30;;;;;;;4.28;70.20;98981.69;4918928;29;20039;-79
2021/11/29 04:12:53;;;;;;;39.05;17.05;;;;;;;4.31;70.09;98974.81;4919238;29;20066;-79
2021/11/29 04:15:19;;;;;;;41.72;17.15;;;;;;;4.03;70.29;98943.78;4930332;29;20036;-79
2021/11/29 04:17:46;;;;;;;38.53;17.48;;;;;;;4.26;71.31;98978.22;4911365;29;20482;-79
2021/11/29 04:20:15;;;;;;;38.28;16.90;;;;;;;4.41;71.15;98975.69;4931497;29;20134;-79
2021/11/29 04:22:45;;;;;;;41.92;16.88;;;;;;;4.53;71.28;98974.88;4950006;28;20096;-78
2021/11/29 04:25:32;;;;;;;35.80;15.82;;;;;;;4.56;70.65;98971.44;4938491;29;20080;-80
2021/11/29 04:27:59;;;;;;;37.13;16.75;;;;;;;4.42;70.46;98963.66;4940457;29;20043;-79
2021/11/29 04:30:26;;;;;;;39.38;16.40;;;;;;;4.36;70.50;98967.09;4939943;29;20067;-79
2021/11/29 04:32:54;;;;;;;39.40;16.60;;;;;;;4.31;70.74;98946.47;4942484;29;20079;-79
2021/11/29 04:35:21;;;;;;;41.38;16.67;;;;;;;4.44;71.16;98974.84;4942600;29;20040;-81
2021/11/29 04:37:47;;;;;;;47.58;18.27;;;;;;;4.21;71.15;98930.13;4911869;29;20040;-81
2021/11/29 04:40:13;;;;;;;37.70;16.48;;;;;;;4.52;72.26;98968.00;4922232;29;20048;-80
2021/11/29 04:42:39;;;;;;;37.78;16.88;;;;;;;4.75;71.34;98975.75;4924880;29;20047;-79
2021/11/29 04:45:06;;;;;;;43.38;17.02;;;;;;;4.66;70.83;98971.44;4922384;29;20525;-81
2021/11/29 04:47:32;;;;;;;46.38;17.83;;;;;;;4.60;71.08;98965.44;4939903;29;20039;-78
2021/11/29 04:49:58;;;;;;;50.03;19.60;;;;;;;4.47;71.66;98968.00;4935792;29;20043;-78
2021/11/29 04:52:25;;;;;;;43.40;18.73;;;;;;;4.22;71.08;98938.72;4947551;29;20051;-79
2021/11/29 04:54:52;;;;;;;40.30;17.83;;;;;;;4.45;71.64;98961.09;4946815;29;20053;-81
2021/11/29 04:57:19;;;;;;;42.20;17.02;;;;;;;4.43;72.09;98963.69;4936917;29;20059;-81
2021/11/29 04:59:45;;;;;;;43.60;17.23;;;;;;;4.25;71.63;98948.19;4946392;29;20036;-80
2021/11/29 05:02:11;;;;;;;45.95;17.70;;;;;;;4.24;72.00;98943.88;4950047;29;20143;-79
2021/11/29 05:04:36;;;;;;;45.47;17.52;;;;;;;4.26;71.38;98935.28;4951267;29;20043;-80
2021/11/29 05:07:03;;;;;;;41.50;16.40;;;;;;;4.52;72.79;98961.09;4952819;29;20050;-79
2021/11/29 05:09:29;;;;;;;43.03;17.38;;;;;;;4.64;71.73;98951.69;4946899;29;20095;-82
2021/11/29 05:11:55;;;;;;;45.33;17.45;;;;;;;4.44;71.45;98938.75;4945482;29;20054;-80
2021/11/29 05:14:21;;;;;;;44.28;17.20;;;;;;;4.35;71.80;98924.16;4929264;29;20059;-79
2021/11/29 05:16:47;;;;;;;42.28;16.17;;;;;;;4.52;72.88;98945.66;4933026;29;20150;-80
2021/11/29 05:19:13;;;;;;;38.22;15.02;;;;;;;4.41;72.36;98931.91;4927888;29;20497;-80
2021/11/29 05:21:41;;;;;;;38.05;15.70;;;;;;;4.51;72.46;98928.50;4927494;29;20044;-80
2021/11/29 05:24:07;;;;;;;46.83;16.35;;;;;;;4.39;72.38;98928.47;4928403;29;20565;-78
2021/11/29 05:26:33;;;;;;;44.65;15.68;;;;;;;4.48;72.79;98946.53;4930498;29;20040;-77
2021/11/29 05:29:00;;;;;;;37.30;15.73;;;;;;;3.54;71.89;98817.50;4926080;29;20040;-79
2021/11/29 05:31:26;;;;;;;43.28;16.33;;;;;;;4.45;73.11;98956.81;4913472;29;20138;-81
2021/11/29 05:33:53;;;;;;;41.75;16.05;;;;;;;4.51;73.31;98946.53;4929390;29;20048;-80
2021/11/29 05:36:22;;;;;;;38.83;15.45;;;;;;;4.53;73.45;98933.63;4929616;29;20047;-81
2021/11/29 05:38:48;;;;;;;41.00;16.52;;;;;;;4.64;73.25;98924.19;4926210;29;20039;-81
2021/11/29 05:41:14;;;;;;;41.60;15.90;;;;;;;4.78;73.24;98942.25;4925910;29;20047;-78
2021/11/29 05:43:40;;;;;;;42.58;16.13;;;;;;;4.70;73.58;98943.09;4926725;29;20098;-79
2021/11/29 05:46:07;;;;;;;38.22;15.25;;;;;;;4.44;72.75;98900.13;4915241;29;20086;-81
2021/11/29 05:48:33;;;;;;;41.20;15.73;;;;;;;4.68;73.23;98946.53;4932774;29;20040;-79
2021/11/29 05:51:04;;;;;;;41.40;16.38;;;;;;;4.73;73.74;98933.69;4941603;29;20094;-83
2021/11/29 05:53:30;;;;;;;40.30;17.05;;;;;;;4.78;73.46;98920.78;4930538;29;20088;-79
2021/11/29 05:56:09;;;;;;;37.08;16.42;;;;;;;4.80;73.42;98894.16;4943360;29;20049;-79
2021/11/29 05:58:39;;;;;;;45.75;17.67;;;;;;;4.98;72.94;98921.66;4919513;29;20071;-82
2021/11/29 06:01:06;;;;;;;39.33;16.58;;;;;;;4.76;72.11;98896.72;4932001;29;20103;-78
2021/11/29 06:03:35;;;;;;;41.50;16.65;;;;;;;3.68;72.91;98735.22;4923135;29;20099;-79
2021/11/29 06:06:05;;;;;;;38.33;16.50;;;;;;;4.04;72.43;98803.91;4931644;29;20436;-80
2021/11/29 06:08:34;;;;;;;46.22;17.25;;;;;;;4.62;73.50;98886.41;4900600;29;20115;-79
2021/11/29 06:11:16;;;;;;;32.42;14.40;;;;;;;4.85;73.17;98893.28;4885019;29;20100;-83
2021/11/29 06:13:46;;;;;;;38.63;16.33;;;;;;;4.87;73.30;98894.16;4893892;29;20036;-83
2021/11/29 06:16:27;;;;;;;40.83;16.40;;;;;;;3.88;73.05;98712.09;4911819;29;20044;-82
2021/11/29 06:18:53;;;;;;;46.10;17.52;;;;;;;4.60;73.74;98847.78;4906941;29;20064;-80
2021/11/29 06:21:19;;;;;;;39.38;16.33;;;;;;;4.70;72.36;98865.78;4910260;29;20068;-81
2021/11/29 06:23:45;;;;;;;42.38;16.70;;;;;;;4.69;72.96;98870.09;4910016;29;20079;-82
2021/11/29 06:26:11;;;;;;;45.05;17.75;;;;;;;4.59;73.57;98869.25;4911245;29;20052;-80
2021/11/29 06:28:37;;;;;;;44.25;18.92;;;;;;;4.77;73.81;98867.53;4910987;29;20064;-79
2021/11/29 06:31:03;;;;;;;45.75;16.80;;;;;;;4.60;72.95;98847.78;4909720;29;20480;-80
2021/11/29 06:33:29;;;;;;;47.03;16.65;;;;;;;4.77;73.27;98863.22;4907467;29;20499;-81
2021/11/29 06:35:58;;;;;;;44.47;16.92;;;;;;;4.59;73.01;98842.59;4911004;29;20100;-80
2021/11/29 06:38:26;;;;;;;43.22;16.00;;;;;;;4.82;73.97;98858.06;4914192;29;20387;-81
2021/11/29 06:40:54;;;;;;;40.78;16.67;;;;;;;4.51;74.15;98807.41;4908975;29;20139;-78
2021/11/29 06:43:22;;;;;;;45.47;16.40;;;;;;;4.58;73.71;98828.00;4910289;29;20040;-82
2021/11/29 06:45:49;;;;;;;39.25;15.45;;;;;;;4.74;74.09;98819.41;4898929;29;20146;-83
2021/11/29 06:48:15;;;;;;;36.13;15.10;;;;;;;4.97;74.63;98839.13;4917524;29;20057;-80
2021/11/29 06:50:41;;;;;;;39.35;14.23;;;;;;;4.96;73.26;98834.84;4916096;29;20131;-81
2021/11/29 06:53:07;;;;;;;34.92;15.80;;;;;;;4.90;74.01;98832.28;4917741;29;20064;-83
2021/11/29 06:55:33;;;;;;;42.22;14.57;;;;;;;5.12;74.50;98836.53;4921712;29;20054;-83
2021/11/29 06:58:00;;;;;;;33.78;14.27;;;;;;;5.21;74.18;98842.53;4920088;29;20052;-81
2021/11/29 07:00:27;;;;;;;37.85;14.77;;;;;;;4.97;73.99;98795.28;4923732;29;20538;-84
2021/11/29 07:02:56;;;;;;;34.10;14.57;;;;;;;5.32;74.19;98843.38;4925313;29;20044;-82
2021/11/29 07:05:25;;;;;;;32.72;12.90;;;;;;;4.88;73.99;98748.94;4900820;29;20055;-81
2021/11/29 07:07:53;;;;;;;32.47;13.73;;;;;;;5.21;73.54;98803.81;4913969;29;20462;-83
2021/11/29 07:10:20;;;;;;;34.00;13.68;;;;;;;5.21;73.83;98804.69;4917953;29;20064;-80
2021/11/29 07:12:48;;;;;;;36.45;14.32;;;;;;;5.01;73.40;98786.69;4912982;29;20046;-83
2021/11/29 07:15:14;;;;;;;36.80;14.43;;;;;;;5.02;74.02;98788.41;4899857;29;20088;-82
2021/11/29 07:17:41;;;;;;;30.10;12.35;;;;;;;4.56;73.37;98729.22;4902001;29;20116;-82
2021/11/29 07:20:08;;;;;;;35.08;14.70;;;;;;;5.12;74.00;98804.72;4937736;29;20322;-83
2021/11/29 07:22:35;;;;;;;36.72;14.65;;;;;;;5.27;74.38;98814.13;4914051;29;20150;-80
2021/11/29 07:25:03;;;;;;;32.10;13.52;;;;;;;5.25;74.65;98796.09;4897397;29;20040;-81
2021/11/29 07:27:31;;;;;;;34.88;14.57;;;;;;;5.08;74.06;98751.44;4908131;29;20047;-83
2021/11/29 07:29:58;;;;;;;33.83;14.00;;;;;;;5.46;74.15;98799.47;4913863;29;20075;-78
2021/11/29 07:32:25;;;;;;;35.20;14.55;;;;;;;5.31;73.85;98787.47;4908768;29;20085;-79
2021/11/29 07:34:51;;;;;;;34.00;13.32;;;;;;;5.38;74.16;98791.75;4896243;29;20127;-81
2021/11/29 07:37:19;;;;;;;35.80;14.05;;;;;;;5.33;73.72;98778.00;4896797;29;20111;-79
2021/11/29 07:39:47;;;;;;;30.20;13.85;;;;;;;5.37;73.84;98794.31;4893824;29;20043;-80
2021/11/29 07:42:16;;;;;;;40.85;14.90;;;;;;;5.38;74.50;98785.72;4907129;29;20087;-79
2021/11/29 07:44:44;;;;;;;37.08;14.07;;;;;;;5.32;73.84;98781.44;4909322;29;20056;-79
2021/11/29 07:47:09;;;;;;;35.70;15.18;;;;;;;5.58;75.07;98783.06;4908510;29;20066;-80
2021/11/29 07:49:35;;;;;;;35.88;14.00;;;;;;;5.60;74.07;98780.47;4912375;29;20039;-81
2021/11/29 07:52:01;;;;;;;37.25;14.75;;;;;;;5.58;74.49;98767.56;4909366;29;20056;-81
2021/11/29 07:54:27;;;;;;;32.05;13.95;;;;;;;5.70;74.51;98764.91;4909177;29;20024;-81
2021/11/29 07:57:15;;;;;;;33.30;13.43;;;;;;;5.66;73.50;98750.31;4900673;29;20304;-78
2021/11/29 07:59:42;;;;;;;36.63;13.18;;;;;;;5.26;73.19;98719.56;4928833;28;20130;-84
2021/11/29 08:02:12;;;;;;;33.88;14.50;;;;;;;5.73;74.98;98764.91;4927387;29;20052;-79
2021/11/29 08:04:54;;;;;;;33.72;14.38;;;;;;;5.53;74.62;98699.63;4910391;29;20053;-79
2021/11/29 08:07:20;;;;;;;34.10;13.27;;;;;;;5.85;74.29;98725.25;4911232;29;20040;-80
2021/11/29 08:09:48;;;;;;;36.05;15.63;;;;;;;5.89;74.44;98726.06;4908004;29;20051;-78
2021/11/29 08:12:17;;;;;;;33.83;13.52;;;;;;;5.87;73.52;98732.97;4911840;29;20048;-79
2021/11/29 08:14:59;;;;;;;36.47;14.23;;;;;;;5.86;73.98;98732.13;4907915;29;20051;-84
2021/11/29 08:17:25;;;;;;;40.75;14.05;;;;;;;5.80;73.79;98718.41;4924217;29;20048;-79
2021/11/29 08:19:51;;;;;;;36.33;14.60;;;;;;;5.76;74.22;98712.38;4911636;29;20048;-80
2021/11/29 08:22:20;;;;;;;33.10;14.25;;;;;;;5.90;74.50;98717.47;4911633;29;20071;-81
2021/11/29 08:25:23;;;;;;;34.92;13.43;;;;;;;5.78;73.91;98678.84;4912083;29;20072;-81
2021/11/29 08:27:49;;;;;;;34.22;14.35;;;;;;;5.98;74.21;98700.19;4895601;29;20052;-78
2021/11/29 08:30:20;;;;;;;35.78;14.02;;;;;;;5.91;74.36;98682.19;4911017;29;20040;-81
2021/11/29 08:32:49;;;;;;;37.65;15.18;;;;;;;5.43;73.77;98598.22;4899483;29;20063;-79
2021/11/29 08:35:17;;;;;;;39.40;16.10;;;;;;;5.60;73.27;98644.56;4903924;29;20044;-77
2021/11/29 08:37:49;;;;;;;42.78;18.50;;;;;;;5.76;74.54;98670.25;4895498;29;20130;-79
2021/11/29 08:40:21;;;;;;;47.30;19.15;;;;;;;5.79;74.35;98675.38;4923784;29;20145;-78
2021/11/29 08:42:47;;;;;;;48.38;21.48;;;;;;;5.85;74.67;98672.72;4917817;29;20077;-80
2021/11/29 08:45:13;;;;;;;47.63;20.23;;;;;;;5.78;74.67;98659.03;4920593;29;20067;-78
2021/11/29 08:47:40;;;;;;;54.63;22.35;;;;;;;5.94;74.23;98683.00;4918217;29;20037;-79
2021/11/29 08:50:06;;;;;;;57.03;23.45;;;;;;;5.86;73.77;98656.38;4913022;29;20098;-80
2021/11/29 08:52:35;;;;;;;48.85;21.48;;;;;;;5.90;73.97;98655.50;4917084;29;20052;-82
2021/11/29 08:55:07;;;;;;;45.03;20.88;;;;;;;5.95;74.71;98653.72;4917981;29;20095;-80
2021/11/29 08:57:33;;;;;;;42.67;19.48;;;;;;;5.98;74.30;98635.63;4923325;29;20068;-78
2021/11/29 08:59:59;;;;;;;41.63;17.80;;;;;;;6.02;74.26;98632.19;4919943;29;20158;-77
2021/11/29 09:02:25;;;;;;;46.92;21.42;;;;;;;5.92;73.88;98621.94;4922920;29;20123;-79
2021/11/29 09:04:53;;;;;;;49.03;22.23;;;;;;;6.00;74.78;98645.97;4919123;29;20051;-77
2021/11/29 09:07:19;;;;;;;48.15;22.67;;;;;;;5.97;73.91;98631.34;4901789;29;20129;-80
2021/11/29 09:09:45;;;;;;;44.80;21.42;;;;;;;5.80;74.96;98581.56;4900286;29;20052;-80
2021/11/29 09:12:13;;;;;;;44.83;20.60;;;;;;;6.19;74.75;98626.00;4916027;29;20057;-79
2021/11/29 09:14:39;;;;;;;44.30;19.63;;;;;;;6.14;73.93;98607.97;4913490;29;20044;-80
2021/11/29 09:17:05;;;;;;;39.15;19.00;;;;;;;6.26;74.11;98603.53;4912263;29;20040;-79
2021/11/29 09:19:31;;;;;;;47.97;21.75;;;;;;;6.41;74.04;98631.78;4883826;29;20054;-83
2021/11/29 09:21:57;;;;;;;35.10;16.95;;;;;;;6.35;73.84;98629.28;4894685;29;20052;-81
2021/11/29 09:24:24;;;;;;;39.15;18.83;;;;;;;6.27;73.67;98607.84;4906867;29;20037;-81
2021/11/29 09:26:49;;;;;;;32.92;15.95;;;;;;;6.40;73.89;98617.16;4909622;29;20040;-81
2021/11/29 09:29:18;;;;;;;40.92;19.88;;;;;;;6.29;72.68;98606.09;4909376;29;20045;-80
2021/11/29 09:31:44;;;;;;;45.30;20.42;;;;;;;5.78;73.62;98542.84;4880167;29;21327;-76
2021/11/29 09:34:10;;;;;;;41.28;18.83;;;;;;;6.16;74.07;98608.81;4912242;29;20048;-80
2021/11/29 09:36:36;;;;;;;41.97;18.65;;;;;;;6.08;73.23;98579.63;4894157;29;20057;-79
2021/11/29 09:39:06;;;;;;;36.78;18.90;;;;;;;6.14;74.06;98587.31;4909558;29;20046;-79
2021/11/29 09:41:34;;;;;;;36.58;17.60;;;;;;;6.27;74.83;98600.97;4891964;29;20934;-79
2021/11/29 09:44:03;;;;;;;29.30;13.20;;;;;;;6.24;74.04;98593.25;4912534;29;20091;-80
2021/11/29 09:46:30;;;;;;;30.38;13.38;;;;;;;6.31;73.83;98594.03;4907041;29;20050;-79
2021/11/29 09:48:56;;;;;;;27.25;13.45;;;;;;;6.10;74.21;98569.25;4910510;29;20036;-81
2021/11/29 09:51:23;;;;;;;26.73;13.02;;;;;;;6.22;73.77;98600.16;4908321;29;20051;-80
2021/11/29 09:53:49;;;;;;;28.33;14.82;;;;;;;6.27;74.53;98589.75;4912024;29;20048;-81
2021/11/29 09:56:18;;;;;;;26.67;14.05;;;;;;;6.20;74.67;98583.81;4909183;29;20040;-83
2021/11/29 09:58:45;;;;;;;27.77;14.10;;;;;;;6.04;73.23;98559.84;4895518;29;20084;-82
2021/11/29 10:01:11;;;;;;;26.83;13.80;;;;;;;6.27;74.25;98577.72;4897583;29;20037;-81
2021/11/29 10:03:37;;;;;;;32.22;16.60;;;;;;;6.39;74.02;98568.09;4919215;29;20059;-77
2021/11/29 10:06:06;;;;;;;36.75;20.02;;;;;;;6.51;73.81;98575.69;4915836;29;20040;-81
2021/11/29 10:08:36;;;;;;;35.08;19.17;;;;;;;6.44;73.46;98549.06;4912553;29;20096;-82
2021/11/29 10:11:11;;;;;;;36.75;18.80;;;;;;;6.63;74.14;98560.03;4911373;29;20039;-80
2021/11/29 10:14:02;;;;;;;39.05;19.63;;;;;;;6.54;73.29;98562.72;4894766;29;20044;-83
2021/11/29 10:16:42;;;;;;;39.88;17.98;;;;;;;6.24;73.76;98546.72;4892956;29;20249;-82
2021/11/29 10:19:11;;;;;;;39.10;19.52;;;;;;;6.30;73.74;98554.41;4896445;29;20393;-86
2021/11/29 10:21:40;;;;;;;35.38;16.90;;;;;;;6.26;73.31;98541.53;4885627;29;20290;-78
2021/11/29 10:24:31;;;;;;;36.28;18.35;;;;;;;6.33;73.51;98551.78;4914350;29;20072;-81
2021/11/29 10:27:00;;;;;;;39.60;18.92;;;;;;;6.25;73.27;98526.91;4903744;29;20044;-82
2021/11/29 10:29:27;;;;;;;36.55;19.20;;;;;;;5.30;73.57;98398.81;4902705;29;20058;-82
2021/11/29 10:31:56;;;;;;;39.30;20.42;;;;;;;5.57;73.72;98418.31;4896951;29;20111;-85
2021/11/29 10:34:36;;;;;;;43.55;21.48;;;;;;;5.90;73.13;98469.59;4913360;29;20063;-82
2021/11/29 10:37:11;;;;;;;39.00;17.98;;;;;;;6.45;73.56;98548.19;4886758;29;20048;-82
2021/11/29 10:39:45;;;;;;;33.40;15.15;;;;;;;6.37;73.42;98518.16;4916522;29;20100;-81
2021/11/29 10:42:14;;;;;;;33.42;17.15;;;;;;;5.82;73.91;98435.28;4887819;29;20100;-83
2021/11/29 10:44:43;;;;;;;29.08;13.32;;;;;;;6.39;73.45;98529.31;4913988;29;20056;-79
2021/11/29 10:47:16;;;;;;;31.38;14.63;;;;;;;6.41;73.89;98514.66;4914531;29;20036;-82
2021/11/29 10:49:46;;;;;;;26.15;13.32;;;;;;;6.24;73.61;98489.91;4914702;29;20052;-81
2021/11/29 10:52:17;;;;;;;31.25;14.30;;;;;;;6.30;74.28;98481.22;4918371;29;20965;-83
2021/11/29 10:54:46;;;;;;;26.52;13.55;;;;;;;5.83;73.33;98421.50;4922102;29;20043;-80
2021/11/29 10:57:16;;;;;;;27.90;14.18;;;;;;;6.42;74.34;98496.53;4918906;29;20051;-80
2021/11/29 10:59:46;;;;;;;26.52;13.38;;;;;;;6.54;74.54;98497.28;4919382;29;20188;-79
2021/11/29 11:02:21;;;;;;;28.60;14.10;;;;;;;6.22;73.38;98452.91;4916574;29;20099;-83
2021/11/29 11:05:00;;;;;;;30.92;14.40;;;;;;;5.98;73.83;98421.28;4913860;29;20116;-80
2021/11/29 11:07:26;;;;;;;29.45;14.02;;;;;;;6.15;73.00;98456.41;4917276;29;20044;-80
2021/11/29 11:09:58;;;;;;;29.02;13.73;;;;;;;6.12;73.78;98457.31;4914344;29;20055;-81
2021/11/29 11:12:27;;;;;;;26.80;13.77;;;;;;;6.03;74.00;98439.34;4900553;29;20095;-79
2021/11/29 11:15:01;;;;;;;28.27;14.48;;;;;;;6.41;74.73;98473.31;4915356;29;20126;-82
2021/11/29 11:17:32;;;;;;;29.25;13.85;;;;;;;6.31;73.68;98465.69;4903265;29;20474;-82
2021/11/29 11:20:09;;;;;;;28.38;13.25;;;;;;;6.30;74.47;98461.38;4913191;29;20045;-82
2021/11/29 11:22:41;;;;;;;31.67;14.48;;;;;;;6.36;73.86;98449.25;4913264;29;20067;-80
2021/11/29 11:25:09;;;;;;;35.35;15.00;;;;;;;6.13;74.18;98429.75;4917736;29;20048;-79
2021/11/29 11:27:43;;;;;;;33.38;14.77;;;;;;;6.23;74.18;98443.41;4920585;29;20036;-82
2021/11/29 11:30:10;;;;;;;32.67;14.70;;;;;;;6.20;74.18;98440.84;4900570;29;20553;-81